Wetterstation Vordersexau
Wetterdaten: Woche 02.03.15 - 08.03.15 (KW10)
Datum Zeit Temp. A. Feuchte A. Luftdruck Regen Wind Richtung Taupunkt Windchill Windben
02.03.2015 00:00 10,8 C 82 % 1004,0 hPa 0,0 l/m 16,8 km/h W-SW 7,9 C 5,4 C 9,4 km/h
02.03.2015 01:00 10,7 C 84 % 1003,6 hPa 0,0 l/m 25,3 km/h W-SW 8,1 C 2,7 C 14,0 km/h
02.03.2015 02:00 10,4 C 86 % 1003,4 hPa 0,0 l/m 25,3 km/h W-SW 8,2 C 2,3 C 14,0 km/h
02.03.2015 03:00 10,6 C 84 % 1003,5 hPa 0,0 l/m 18,1 km/h W 8,0 C 4,7 C 10,1 km/h
02.03.2015 04:00 10,5 C 84 % 1003,6 hPa 0,0 l/m 5,8 km/h W-NW 7,9 C 10,5 C 3,2 km/h
02.03.2015 05:00 9,4 C 84 % 1004,0 hPa 0,4 l/m 1,9 km/h W-NW 6,8 C 9,4 C 1,1 km/h
02.03.2015 06:00 9,4 C 84 % 1003,9 hPa 0,0 l/m 1,9 km/h W-NW 6,8 C 9,4 C 1,1 km/h
02.03.2015 07:00 7,8 C 83 % 1005,8 hPa 0,0 l/m 0,0 km/h N-NO 5,1 C 7,8 C 0,0 km/h
02.03.2015 08:00 6,7 C 82 % 1007,7 hPa 0,0 l/m 11,7 km/h S 3,8 C 2,9 C 6,5 km/h
02.03.2015 09:00 7,3 C 81 % 1007,9 hPa 0,0 l/m 0,0 km/h W 4,3 C 7,3 C 0,0 km/h
02.03.2015 10:00 7,8 C 77 % 1008,0 hPa 0,0 l/m 13,6 km/h S-SW 4,0 C 3,1 C 7,6 km/h
02.03.2015 11:00 8,3 C 77 % 1008,8 hPa 0,0 l/m 4,5 km/h W-SW 4,5 C 8,3 C 2,5 km/h
02.03.2015 12:00 0,0 C 0 % 1008,7 hPa 0,0 l/m 0,0 km/h SW -60,0 C 0,0 C 0,0 km/h
02.03.2015 13:00 9,9 C 71 % 1008,8 hPa 0,0 l/m 28,5 km/h W-NW 4,9 C 0,8 C 15,8 km/h
02.03.2015 14:00 9,5 C 79 % 1010,0 hPa 0,4 l/m 22,0 km/h W-NW 6,0 C 2,0 C 12,2 km/h
02.03.2015 15:00 9,5 C 59 % 1010,2 hPa 0,0 l/m 21,4 km/h W-NW 1,9 C 2,2 C 11,9 km/h
02.03.2015 16:00 12,9 C 54 % 1010,9 hPa 0,0 l/m 23,3 km/h W-SW 3,8 C 6,2 C 13,0 km/h
02.03.2015 17:00 9,3 C 64 % 1013,4 hPa 0,0 l/m 30,5 km/h S-SO 2,8 C -0,4 C 16,9 km/h
02.03.2015 18:00 3,2 C 83 % 1014,0 hPa 0,8 l/m 0,0 km/h W 0,6 C 3,2 C 0,0 km/h
02.03.2015 19:00 2,9 C 85 % 1015,8 hPa 0,4 l/m 0,0 km/h NO 0,6 C 2,9 C 0,0 km/h
02.03.2015 20:00 2,1 C 86 % 1017,6 hPa 0,0 l/m 0,0 km/h S-SO 0,0 C 2,1 C 0,0 km/h
02.03.2015 21:00 2,1 C 86 % 1018,3 hPa 0,4 l/m 0,0 km/h S-SW 0,0 C 2,1 C 0,0 km/h
02.03.2015 22:00 2,3 C 82 % 1019,4 hPa 0,0 l/m 0,0 km/h S-SW -0,4 C 2,3 C 0,0 km/h
02.03.2015 23:00 1,2 C 83 % 1020,0 hPa 0,0 l/m 0,0 km/h NO -1,4 C 1,2 C 0,0 km/h
03.03.2015 00:00 0,3 C 84 % 1020,2 hPa 0,0 l/m 0,0 km/h NO -2,1 C 0,3 C 0,0 km/h
03.03.2015 01:00 0,1 C 86 % 1020,5 hPa 0,0 l/m 0,0 km/h NO -2,0 C 0,1 C 0,0 km/h
03.03.2015 02:00 0,1 C 86 % 1020,6 hPa 0,0 l/m 0,0 km/h NO -2,0 C 0,1 C 0,0 km/h
03.03.2015 03:00 -0,1 C 87 % 1021,0 hPa 0,0 l/m 0,0 km/h NO -2,0 C -0,1 C 0,0 km/h
03.03.2015 04:00 -0,4 C 87 % 1021,4 hPa 0,0 l/m 0,0 km/h O -2,3 C -0,4 C 0,0 km/h
03.03.2015 05:00 -0,7 C 87 % 1021,4 hPa 0,0 l/m 0,0 km/h O-SO -2,6 C -0,7 C 0,0 km/h
03.03.2015 06:00 -1,1 C 87 % 1021,1 hPa 0,0 l/m 0,0 km/h O-SO -3,0 C -1,1 C 0,0 km/h
03.03.2015 07:00 -0,7 C 87 % 1021,4 hPa 0,0 l/m 0,0 km/h O-SO -2,6 C -0,7 C 0,0 km/h
03.03.2015 08:00 1,8 C 85 % 1021,8 hPa 0,0 l/m 0,0 km/h W -0,4 C 1,8 C 0,0 km/h
03.03.2015 09:00 4,4 C 87 % 1021,8 hPa 0,0 l/m 0,0 km/h SO 2,4 C 4,4 C 0,0 km/h
03.03.2015 10:00 12,1 C 69 % 1021,2 hPa 0,0 l/m 0,0 km/h W 6,6 C 12,1 C 0,0 km/h
03.03.2015 11:00 13,9 C 50 % 1020,5 hPa 0,0 l/m 6,5 km/h W-SW 3,7 C 13,9 C 3,6 km/h
03.03.2015 12:00 13,9 C 48 % 1019,9 hPa 0,0 l/m 12,3 km/h W-SW 3,1 C 10,9 C 6,8 km/h
03.03.2015 13:00 13,0 C 49 % 1019,5 hPa 0,0 l/m 18,1 km/h SW 2,5 C 7,7 C 10,1 km/h
03.03.2015 14:00 13,7 C 51 % 1018,6 hPa 0,0 l/m 22,0 km/h W-NW 3,8 C 7,5 C 12,2 km/h
03.03.2015 15:00 14,0 C 47 % 1018,2 hPa 0,0 l/m 48,0 km/h W 2,9 C 4,0 C 26,6 km/h
03.03.2015 16:00 12,4 C 51 % 1018,2 hPa 0,0 l/m 21,4 km/h SW 2,6 C 6,0 C 11,9 km/h
03.03.2015 17:00 9,8 C 56 % 1018,2 hPa 0,0 l/m 21,4 km/h SW 1,4 C 2,6 C 11,9 km/h
03.03.2015 18:00 8,7 C 58 % 1018,6 hPa 0,0 l/m 22,7 km/h S-SW 0,9 C 0,7 C 12,6 km/h
03.03.2015 19:00 8,3 C 61 % 1019,2 hPa 0,0 l/m 16,2 km/h SW 1,2 C 2,6 C 9,0 km/h
03.03.2015 20:00 8,1 C 62 % 1019,0 hPa 0,0 l/m 7,1 km/h S-SW 1,3 C 7,6 C 4,0 km/h
03.03.2015 21:00 8,5 C 61 % 1019,1 hPa 0,0 l/m 8,4 km/h W-SW 1,4 C 7,0 C 4,7 km/h
03.03.2015 22:00 8,4 C 62 % 1019,0 hPa 0,0 l/m 21,4 km/h W 1,6 C 0,7 C 11,9 km/h
03.03.2015 23:00 8,2 C 64 % 1019,5 hPa 0,0 l/m 18,1 km/h N-NO 1,8 C 1,7 C 10,1 km/h
04.03.2015 00:00 6,6 C 74 % 1020,5 hPa 0,0 l/m 1,3 km/h N-NO 2,3 C 6,6 C 0,7 km/h
04.03.2015 01:00 4,8 C 80 % 1021,4 hPa 0,4 l/m 0,0 km/h SO 1,6 C 4,8 C 0,0 km/h
04.03.2015 02:00 4,3 C 83 % 1022,2 hPa 0,0 l/m 0,0 km/h W-NW 1,7 C 4,3 C 0,0 km/h
04.03.2015 03:00 3,5 C 82 % 1022,1 hPa 0,0 l/m 0,0 km/h S-SW 0,7 C 3,5 C 0,0 km/h
04.03.2015 04:00 2,5 C 84 % 1022,5 hPa 0,0 l/m 0,0 km/h N-NW 0,1 C 2,5 C 0,0 km/h
04.03.2015 05:00 1,6 C 85 % 1023,1 hPa 0,0 l/m 0,0 km/h N-NW -0,6 C 1,6 C 0,0 km/h
04.03.2015 06:00 1,4 C 86 % 1023,3 hPa 0,0 l/m 0,0 km/h O-NO -0,7 C 1,4 C 0,0 km/h
04.03.2015 07:00 1,9 C 86 % 1023,9 hPa 0,0 l/m 0,0 km/h O-NO -0,2 C 1,9 C 0,0 km/h
04.03.2015 08:00 3,4 C 86 % 1024,6 hPa 0,0 l/m 0,0 km/h O-NO 1,3 C 3,4 C 0,0 km/h
04.03.2015 09:00 5,1 C 86 % 1025,0 hPa 0,0 l/m 0,0 km/h W-NW 3,0 C 5,1 C 0,0 km/h
04.03.2015 10:00 9,5 C 75 % 1025,3 hPa 0,0 l/m 0,0 km/h W 5,3 C 9,5 C 0,0 km/h
04.03.2015 11:00 10,3 C 58 % 1025,2 hPa 0,0 l/m 4,5 km/h W-NW 2,4 C 10,3 C 2,5 km/h
04.03.2015 12:00 9,5 C 55 % 1025,3 hPa 0,0 l/m 7,1 km/h W 0,9 C 9,0 C 4,0 km/h
04.03.2015 13:00 9,8 C 56 % 1025,1 hPa 0,0 l/m 7,8 km/h NW 1,4 C 8,8 C 4,3 km/h
04.03.2015 14:00 10,8 C 48 % 1024,5 hPa 0,0 l/m 0,0 km/h NW 0,2 C 10,8 C 0,0 km/h
04.03.2015 15:00 10,2 C 46 % 1025,0 hPa 0,0 l/m 0,0 km/h N-NW -0,9 C 10,2 C 0,0 km/h
04.03.2015 16:00 13,9 C 41 % 1025,3 hPa 0,0 l/m 0,6 km/h W-NW 0,9 C 13,9 C 0,4 km/h
04.03.2015 17:00 7,9 C 49 % 1026,0 hPa 0,0 l/m 0,0 km/h N-NW -2,1 C 7,9 C 0,0 km/h
04.03.2015 18:00 3,8 C 61 % 1026,8 hPa 0,0 l/m 0,0 km/h N -3,0 C 3,8 C 0,0 km/h
04.03.2015 19:00 1,9 C 67 % 1027,6 hPa 0,0 l/m 0,0 km/h N -3,6 C 1,9 C 0,0 km/h
04.03.2015 20:00 0,1 C 74 % 1028,1 hPa 0,0 l/m 0,0 km/h N -4,0 C 0,1 C 0,0 km/h
04.03.2015 21:00 0,3 C 79 % 1029,1 hPa 0,0 l/m 0,0 km/h N -2,9 C 0,3 C 0,0 km/h
04.03.2015 22:00 1,1 C 80 % 1029,6 hPa 0,0 l/m 0,0 km/h O-NO -2,0 C 1,1 C 0,0 km/h
04.03.2015 23:00 1,5 C 82 % 1030,1 hPa 0,0 l/m 0,0 km/h O-SO -1,2 C 1,5 C 0,0 km/h
05.03.2015 00:00 -0,7 C 82 % 1030,5 hPa 0,0 l/m 0,0 km/h O-SO -3,4 C -0,7 C 0,0 km/h
05.03.2015 01:00 -0,4 C 84 % 1030,9 hPa 0,0 l/m 0,0 km/h O-SO -2,8 C -0,4 C 0,0 km/h
05.03.2015 02:00 0,4 C 85 % 1031,2 hPa 0,0 l/m 0,0 km/h O-SO -1,8 C 0,4 C 0,0 km/h
05.03.2015 03:00 1,0 C 85 % 1031,3 hPa 0,0 l/m 0,0 km/h O-SO -1,2 C 1,0 C 0,0 km/h
05.03.2015 04:00 1,3 C 85 % 1031,7 hPa 0,0 l/m 0,0 km/h O-SO -0,9 C 1,3 C 0,0 km/h
05.03.2015 05:00 0,8 C 86 % 1032,1 hPa 0,0 l/m 0,0 km/h O-SO -1,3 C 0,8 C 0,0 km/h
05.03.2015 06:00 1,2 C 86 % 1032,7 hPa 0,0 l/m 0,0 km/h O-SO -0,9 C 1,2 C 0,0 km/h
05.03.2015 07:00 1,4 C 86 % 1032,9 hPa 0,0 l/m 0,0 km/h N-NO -0,7 C 1,4 C 0,0 km/h
05.03.2015 08:00 3,4 C 86 % 1033,6 hPa 0,0 l/m 0,0 km/h N-NO 1,3 C 3,4 C 0,0 km/h
05.03.2015 09:00 5,1 C 78 % 1033,8 hPa 0,0 l/m 0,0 km/h N-NO 1,6 C 5,1 C 0,0 km/h
05.03.2015 10:00 5,8 C 73 % 1033,9 hPa 0,0 l/m 0,0 km/h N-NO 1,3 C 5,8 C 0,0 km/h
05.03.2015 11:00 9,9 C 59 % 1033,5 hPa 0,0 l/m 0,0 km/h N-NO 2,3 C 9,9 C 0,0 km/h
05.03.2015 12:00 7,6 C 56 % 1033,4 hPa 0,0 l/m 0,0 km/h N -0,6 C 7,6 C 0,0 km/h
05.03.2015 13:00 10,1 C 47 % 1033,0 hPa 0,0 l/m 0,0 km/h N-NO -0,7 C 10,1 C 0,0 km/h
05.03.2015 14:00 11,2 C 45 % 1032,7 hPa 0,0 l/m 0,0 km/h N-NO -0,3 C 11,2 C 0,0 km/h
05.03.2015 15:00 10,7 C 45 % 1032,8 hPa 0,0 l/m 5,2 km/h NO -0,7 C 10,7 C 2,9 km/h
05.03.2015 16:00 10,3 C 44 % 1033,0 hPa 0,0 l/m 12,3 km/h N-NO -1,4 C 6,7 C 6,8 km/h
05.03.2015 17:00 11,8 C 42 % 1033,1 hPa 0,0 l/m 0,0 km/h N-NO -0,7 C 11,8 C 0,0 km/h
05.03.2015 18:00 4,4 C 56 % 1033,7 hPa 0,0 l/m 0,0 km/h SO -3,6 C 4,4 C 0,0 km/h
05.03.2015 19:00 0,4 C 76 % 1034,4 hPa 0,0 l/m 0,0 km/h SO -3,3 C 0,4 C 0,0 km/h
05.03.2015 20:00 -0,2 C 78 % 1034,5 hPa 0,0 l/m 0,0 km/h O -3,6 C -0,2 C 0,0 km/h
05.03.2015 21:00 -0,6 C 80 % 1034,7 hPa 0,0 l/m 0,0 km/h O-NO -3,6 C -0,6 C 0,0 km/h
05.03.2015 22:00 -1,2 C 81 % 1034,6 hPa 0,0 l/m 0,0 km/h O-SO -4,0 C -1,2 C 0,0 km/h
05.03.2015 23:00 -1,5 C 83 % 1034,9 hPa 0,0 l/m 0,0 km/h SO -4,0 C -1,5 C 0,0 km/h
06.03.2015 00:00 -1,2 C 83 % 1034,5 hPa 0,0 l/m 1,9 km/h SO -3,7 C -1,2 C 1,1 km/h
06.03.2015 01:00 -1,3 C 84 % 1034,3 hPa 0,0 l/m 0,0 km/h SO -3,6 C -1,3 C 0,0 km/h
06.03.2015 02:00 -2,4 C 84 % 1034,3 hPa 0,0 l/m 0,0 km/h O -4,7 C -2,4 C 0,0 km/h
06.03.2015 03:00 -2,9 C 85 % 1034,6 hPa 0,0 l/m 0,0 km/h O-NO -5,1 C -2,9 C 0,0 km/h
06.03.2015 04:00 -2,7 C 86 % 1035,0 hPa 0,0 l/m 0,0 km/h O-NO -4,7 C -2,7 C 0,0 km/h
06.03.2015 05:00 -1,5 C 86 % 1035,9 hPa 0,0 l/m 0,0 km/h SO -3,5 C -1,5 C 0,0 km/h
06.03.2015 06:00 2,8 C 81 % 1035,7 hPa 0,0 l/m 0,0 km/h O-NO -0,1 C 2,8 C 0,0 km/h
06.03.2015 07:00 11,7 C 62 % 1035,5 hPa 0,0 l/m 0,0 km/h W-NW 4,7 C 11,7 C 0,0 km/h
06.03.2015 08:00 13,6 C 51 % 1035,0 hPa 0,0 l/m 0,0 km/h W-NW 3,7 C 13,6 C 0,0 km/h
06.03.2015 09:00 14,4 C 47 % 1034,9 hPa 0,0 l/m 0,6 km/h W 3,2 C 14,4 C 0,4 km/h
06.03.2015 10:00 13,6 C 46 % 1033,9 hPa 0,0 l/m 0,0 km/h SW 2,2 C 13,6 C 0,0 km/h
06.03.2015 11:00 14,1 C 43 % 1033,5 hPa 0,0 l/m 10,4 km/h W 1,7 C 11,9 C 5,8 km/h
06.03.2015 12:00 16,2 C 41 % 1032,7 hPa 0,0 l/m 0,6 km/h W-NW 2,9 C 16,2 C 0,4 km/h
06.03.2015 13:00 18,4 C 36 % 1032,1 hPa 0,0 l/m 0,0 km/h W-NW 3,1 C 18,4 C 0,0 km/h
06.03.2015 14:00 17,1 C 37 % 1031,9 hPa 0,0 l/m 1,3 km/h N-NW 2,3 C 17,1 C 0,7 km/h
06.03.2015 15:00 9,9 C 49 % 1031,8 hPa 0,0 l/m 0,0 km/h N-NW -0,3 C 9,9 C 0,0 km/h
06.03.2015 16:00 4,9 C 63 % 1031,6 hPa 0,0 l/m 0,0 km/h N-NO -1,5 C 4,9 C 0,0 km/h
06.03.2015 17:00 3,3 C 70 % 1032,4 hPa 0,0 l/m 0,0 km/h O-SO -1,6 C 3,3 C 0,0 km/h
06.03.2015 18:00 1,9 C 76 % 1032,9 hPa 0,0 l/m 0,0 km/h SO -1,9 C 1,9 C 0,0 km/h
06.03.2015 19:00 1,8 C 79 % 1032,3 hPa 0,0 l/m 0,0 km/h O-SO -1,4 C 1,8 C 0,0 km/h
06.03.2015 20:00 1,1 C 80 % 1031,9 hPa 0,0 l/m 0,0 km/h O-SO -2,0 C 1,1 C 0,0 km/h
06.03.2015 21:00 0,4 C 82 % 1031,8 hPa 0,0 l/m 0,0 km/h O -2,3 C 0,4 C 0,0 km/h
06.03.2015 22:00 -0,2 C 83 % 1031,8 hPa 0,0 l/m 0,0 km/h O -2,7 C -0,2 C 0,0 km/h
06.03.2015 23:00 -1,1 C 84 % 1032,2 hPa 0,0 l/m 0,0 km/h O-NO -3,4 C -1,1 C 0,0 km/h
07.03.2015 00:00 -1,5 C 85 % 1031,6 hPa 0,0 l/m 0,0 km/h O-NO -3,7 C -1,5 C 0,0 km/h
07.03.2015 01:00 -1,1 C 85 % 1030,7 hPa 0,0 l/m 0,0 km/h O-NO -3,3 C -1,1 C 0,0 km/h
07.03.2015 02:00 -1,7 C 85 % 1031,1 hPa 0,0 l/m 0,0 km/h O -3,9 C -1,7 C 0,0 km/h
07.03.2015 03:00 -2,2 C 86 % 1030,6 hPa 0,0 l/m 0,0 km/h NO -4,2 C -2,2 C 0,0 km/h
07.03.2015 04:00 -2,9 C 86 % 1031,1 hPa 0,0 l/m 0,0 km/h O-NO -4,9 C -2,9 C 0,0 km/h
07.03.2015 05:00 -0,8 C 86 % 1031,2 hPa 0,0 l/m 0,0 km/h O-NO -2,8 C -0,8 C 0,0 km/h
07.03.2015 06:00 3,4 C 82 % 1030,7 hPa 0,0 l/m 0,0 km/h SO 0,6 C 3,4 C 0,0 km/h
07.03.2015 07:00 7,8 C 69 % 1030,3 hPa 0,0 l/m 0,0 km/h S 2,5 C 7,8 C 0,0 km/h
07.03.2015 08:00 11,2 C 58 % 1030,3 hPa 0,0 l/m 0,0 km/h S-SW 3,2 C 11,2 C 0,0 km/h
07.03.2015 09:00 13,8 C 50 % 1030,1 hPa 0,0 l/m 0,0 km/h W 3,6 C 13,8 C 0,0 km/h
07.03.2015 10:00 14,5 C 46 % 1029,3 hPa 0,0 l/m 0,0 km/h SW 3,0 C 14,5 C 0,0 km/h
07.03.2015 11:00 15,4 C 44 % 1028,6 hPa 0,0 l/m 0,0 km/h W 3,2 C 15,4 C 0,0 km/h
07.03.2015 12:00 14,9 C 44 % 1028,1 hPa 0,0 l/m 0,0 km/h W-NW 2,8 C 14,9 C 0,0 km/h
07.03.2015 13:00 17,4 C 42 % 1027,6 hPa 0,0 l/m 0,0 km/h W 4,4 C 17,4 C 0,0 km/h
07.03.2015 14:00 18,4 C 40 % 1027,3 hPa 0,0 l/m 0,0 km/h W-NW 4,6 C 18,4 C 0,0 km/h
07.03.2015 15:00 11,8 C 49 % 1027,4 hPa 0,0 l/m 0,0 km/h W-NW 1,4 C 11,8 C 0,0 km/h
07.03.2015 16:00 5,8 C 67 % 1027,4 hPa 0,0 l/m 0,0 km/h W-NW 0,2 C 5,8 C 0,0 km/h
07.03.2015 17:00 3,6 C 73 % 1027,6 hPa 0,0 l/m 0,0 km/h W-NW -0,8 C 3,6 C 0,0 km/h
07.03.2015 18:00 2,4 C 78 % 1027,2 hPa 0,0 l/m 0,0 km/h W-NW -1,0 C 2,4 C 0,0 km/h
07.03.2015 19:00 1,2 C 81 % 1027,2 hPa 0,0 l/m 0,0 km/h SO -1,7 C 1,2 C 0,0 km/h
07.03.2015 20:00 0,9 C 83 % 1026,9 hPa 0,0 l/m 0,0 km/h O-SO -1,7 C 0,9 C 0,0 km/h
07.03.2015 21:00 0,5 C 84 % 1027,0 hPa 0,0 l/m 0,0 km/h O -1,9 C 0,5 C 0,0 km/h
07.03.2015 22:00 0,5 C 85 % 1026,4 hPa 0,0 l/m 0,0 km/h O-SO -1,7 C 0,5 C 0,0 km/h
07.03.2015 23:00 0,4 C 85 % 1026,0 hPa 0,0 l/m 0,0 km/h O -1,8 C 0,4 C 0,0 km/h
08.03.2015 00:00 0,1 C 86 % 1025,4 hPa 0,0 l/m 0,0 km/h O -2,0 C 0,1 C 0,0 km/h
08.03.2015 01:00 -1,1 C 86 % 1025,1 hPa 0,0 l/m 0,0 km/h O -3,1 C -1,1 C 0,0 km/h
08.03.2015 02:00 -1,4 C 86 % 1024,9 hPa 0,0 l/m 0,0 km/h O-NO -3,4 C -1,4 C 0,0 km/h
08.03.2015 03:00 -1,7 C 86 % 1024,6 hPa 0,0 l/m 0,0 km/h O-NO -3,7 C -1,7 C 0,0 km/h
08.03.2015 04:00 -1,9 C 87 % 1024,2 hPa 0,0 l/m 0,0 km/h NO -3,8 C -1,9 C 0,0 km/h
08.03.2015 05:00 -0,1 C 86 % 1023,9 hPa 0,0 l/m 0,0 km/h O-NO -2,2 C -0,1 C 0,0 km/h
08.03.2015 06:00 4,5 C 84 % 1023,8 hPa 0,0 l/m 0,0 km/h NO 2,0 C 4,5 C 0,0 km/h
08.03.2015 07:00 9,6 C 70 % 1023,9 hPa 0,0 l/m 0,0 km/h W-NW 4,4 C 9,6 C 0,0 km/h
08.03.2015 08:00 14,4 C 56 % 1023,7 hPa 0,0 l/m 3,2 km/h N 5,7 C 14,4 C 1,8 km/h
08.03.2015 09:00 17,8 C 47 % 1023,0 hPa 0,0 l/m 5,2 km/h NW 6,3 C 17,8 C 2,9 km/h
08.03.2015 10:00 17,2 C 46 % 1022,6 hPa 0,0 l/m 6,5 km/h W-NW 5,5 C 17,2 C 3,6 km/h
08.03.2015 11:00 17,6 C 47 % 1021,8 hPa 0,0 l/m 15,6 km/h W-NW 6,2 C 14,2 C 8,6 km/h
08.03.2015 12:00 19,2 C 44 % 1021,0 hPa 0,0 l/m 0,0 km/h W-NW 6,7 C 19,2 C 0,0 km/h
08.03.2015 13:00 20,2 C 42 % 1020,8 hPa 0,0 l/m 0,0 km/h W-NW 6,9 C 20,2 C 0,0 km/h
08.03.2015 14:00 18,9 C 44 % 1020,4 hPa 0,0 l/m 0,0 km/h W-NW 6,4 C 18,9 C 0,0 km/h
08.03.2015 15:00 13,5 C 53 % 1020,9 hPa 0,0 l/m 0,0 km/h W 4,1 C 13,5 C 0,0 km/h
08.03.2015 16:00 7,3 C 68 % 1021,0 hPa 0,0 l/m 0,0 km/h S 1,8 C 7,3 C 0,0 km/h
08.03.2015 17:00 5,9 C 76 % 1021,3 hPa 0,0 l/m 0,0 km/h S 2,0 C 5,9 C 0,0 km/h
08.03.2015 18:00 4,9 C 79 % 1021,3 hPa 0,0 l/m 0,0 km/h O-NO 1,6 C 4,9 C 0,0 km/h
08.03.2015 19:00 4,5 C 82 % 1020,9 hPa 0,0 l/m 0,0 km/h O-SO 1,7 C 4,5 C 0,0 km/h
08.03.2015 20:00 3,3 C 83 % 1021,2 hPa 0,0 l/m 0,0 km/h NO 0,7 C 3,3 C 0,0 km/h
08.03.2015 21:00 3,7 C 85 % 1021,2 hPa 0,0 l/m 0,0 km/h O-NO 1,4 C 3,7 C 0,0 km/h
08.03.2015 22:00 3,5 C 85 % 1021,8 hPa 0,0 l/m 0,0 km/h SO 1,2 C 3,5 C 0,0 km/h
08.03.2015 23:00 4,5 C 83 % 1020,7 hPa 0,0 l/m 0,0 km/h W-NW 1,9 C 4,5 C 0,0 km/h
Min-Datum _ 06.03.15 02.03.15 02.03.15 - 02.03.15 - 02.03.15 06.03.15 02.03.15
_ Min-Zeit 03:53 12:53 02:53 - 07:53 - 12:53 03:53 07:53
Minimum _ -2,9 C 0 % 1003,4 hPa - 0,0 km/h - -60,0 C -2,9 C 0,0 km/h
Max-Datum _ 08.03.15 03.03.15 06.03.15 02.03.15 03.03.15 - 02.03.15 08.03.15 03.03.15
_ Max-Zeit 13:53 03:53 05:53 18:53 15:53 - 02:53 13:53 15:53
Maximum _ 20,2 C 87 % 1035,9 hPa 0,8 l/m 48,0 km/h
W
- 8,2 C 20,2 C 26,6 km/h
W
Durchschnitt _ 5,9 C 71 % 1024,6 hPa #2,9 l/m 3,4 km/h W-NW 0,3 C 5,0 C 1,9 km/h
www.sexauwetter.de